Milouin — FT9009 — position and weather

sailwx.info

Track history (hours):
 
Tides and Currents Weather Stations Pressure Air Temp Water Temp Dewpoint Dewpoint Depression Visibility Wind Speed Wind Dir Waves Ship Positions

Milouin

Last reported at 2017-Nov-18 23:16 UTC. Time now 2017-Nov-18 23:48 UTC.
Position N 47°17' W 002°01'.

Length 36 m; draft 2.5 m.

Type: Ship. MMSI: 227003190.

Date/timePositionNaut miles runAvg speedWind from/ knotsBaromVisibWave heightAir tempDewpointWater temp
2017-Nov-18 23:16N 47°17' W 002°01'0 0.0
2017-Nov-18 17:16N 47°17' W 002°01'2 5.8
2017-Nov-18 17:01N 47°18' W 002°03'0 0.3
2017-Nov-18 16:27N 47°18' W 002°03'0 0.1
2017-Nov-18 16:00N 47°18' W 002°04'0 0.3
2017-Nov-18 15:30N 47°18' W 002°03'1 2.8
2017-Nov-18 15:00N 47°18' W 002°01'0 0.6
2017-Nov-18 14:23N 47°17' W 002°01'0 0.0
2017-Nov-18 13:59N 47°17' W 002°01'0 0.0
2017-Nov-18 13:29N 47°17' W 002°01'0 0.0
2017-Nov-18 12:59N 47°17' W 002°01'0 0.0
2017-Nov-18 12:29N 47°17' W 002°01'0 0.0
2017-Nov-18 11:56N 47°17' W 002°01'0 0.0
2017-Nov-18 11:29N 47°17' W 002°01'0 0.0
2017-Nov-18 10:56N 47°17' W 002°01'0 0.0
2017-Nov-18 10:30N 47°17' W 002°01'3 6.7
2017-Nov-18 10:00N 47°17' W 001°56'1 2.0
2017-Nov-18 09:28N 47°17' W 001°55'0 0.0
2017-Nov-18 08:58N 47°17' W 001°55'0 0.1
2017-Nov-18 08:30N 47°17' W 001°55'2 4.3
2017-Nov-18 08:00N 47°17' W 001°58'2 4.0
2017-Nov-18 07:30N 47°17' W 002°01'0 0.5
2017-Nov-18 06:56N 47°17' W 002°01'0 0.0
2017-Nov-18 06:29N 47°17' W 002°01'0 0.0
2017-Nov-18 05:59N 47°17' W 002°01'0 0.0
2017-Nov-18 05:29N 47°17' W 002°01'0 0.0
2017-Nov-18 04:59N 47°17' W 002°01'0 0.0
2017-Nov-18 04:29N 47°17' W 002°01'0 0.0
2017-Nov-18 03:59N 47°17' W 002°01'0 0.0
2017-Nov-18 03:29N 47°17' W 002°01'0 0.0
2017-Nov-18 02:50N 47°17' W 002°01'0 0.0
2017-Nov-18 02:29N 47°17' W 002°01'0 0.0
2017-Nov-18 01:50N 47°17' W 002°01'0 0.0
2017-Nov-18 01:17N 47°17' W 002°01'0 0.0
2017-Nov-18 00:44N 47°17' W 002°01'0 0.0
2017-Nov-18 00:29N 47°17' W 002°01'0 0.0
2017-Nov-17 23:56N 47°17' W 002°01'0 0.0
2017-Nov-17 23:26N 47°17' W 002°01'0 0.0
2017-Nov-17 22:50N 47°17' W 002°01'0 0.0
2017-Nov-17 21:53N 47°17' W 002°01'0 0.0
2017-Nov-17 21:29N 47°17' W 002°01'0 0.0
2017-Nov-17 20:53N 47°17' W 002°01'0 0.0
2017-Nov-17 20:26N 47°17' W 002°01'0 0.0
2017-Nov-17 19:56N 47°17' W 002°01'0 0.0
2017-Nov-17 19:29N 47°17' W 002°01'0 0.0
2017-Nov-17 18:59N 47°17' W 002°01'0 0.0
2017-Nov-17 18:11N 47°17' W 002°01'0 0.0
2017-Nov-17 17:59N 47°17' W 002°01'0 0.0
2017-Nov-17 17:29N 47°17' W 002°01'1 2.8
2017-Nov-17 17:00N 47°18' W 002°03'0 0.6
2017-Nov-17 16:28N 47°18' W 002°03'0 0.2
2017-Nov-17 16:01N 47°18' W 002°03'0 0.4
2017-Nov-17 15:30N 47°18' W 002°04'0 0.3
2017-Nov-17 14:59N 47°18' W 002°04'2 3.8
2017-Nov-17 14:30N 47°18' W 002°01'0 0.4
2017-Nov-17 13:59N 47°17' W 002°01'0 0.0
2017-Nov-17 13:29N 47°17' W 002°01'0 0.0
2017-Nov-17 12:56N 47°17' W 002°01'0 0.0
2017-Nov-17 12:23N 47°17' W 002°01'0 0.0
2017-Nov-17 11:56N 47°17' W 002°01'0 0.0
2017-Nov-17 11:29N 47°17' W 002°01'0 0.0
2017-Nov-17 10:35N 47°17' W 002°01'0 0.0
2017-Nov-17 10:11N 47°17' W 002°01'0 0.0
2017-Nov-17 09:50N 47°17' W 002°01'0 1.5
2017-Nov-17 09:30N 47°17' W 002°00'0 0.8
2017-Nov-17 09:00N 47°17' W 001°60'1 0.9
2017-Nov-17 08:26N 47°18' W 002°01'1 1.4
2017-Nov-17 07:59N 47°18' W 002°02'0 0.3
2017-Nov-17 06:20N 47°17' W 002°01'0 0.0
2017-Nov-16 16:57N 47°17' W 002°01'3 6.2
2017-Nov-16 16:30N 47°18' W 002°05'0 0.8
2017-Nov-16 16:00N 47°18' W 002°06'0 0.1
2017-Nov-16 15:29N 47°18' W 002°06'0 0.0
2017-Nov-16 15:00N 47°18' W 002°06'0 0.3
2017-Nov-16 14:30N 47°18' W 002°06'2 4.8
2017-Nov-16 14:00N 47°18' W 002°02'1 1.6
2017-Nov-16 13:25N 47°17' W 002°01'0 0.0
2017-Nov-16 12:55N 47°17' W 002°01'0 0.0
2017-Nov-16 12:25N 47°17' W 002°01'0 0.0
2017-Nov-16 11:55N 47°17' W 002°01'0 0.0
2017-Nov-16 11:28N 47°17' W 002°01'0 0.0
2017-Nov-16 10:55N 47°17' W 002°01'0 0.0
2017-Nov-16 10:19N 47°17' W 002°01'0 0.0
2017-Nov-16 09:58N 47°17' W 002°01'0 0.0
2017-Nov-16 09:25N 47°17' W 002°01'0 0.0
2017-Nov-16 08:43N 47°17' W 002°01'0 0.0
2017-Nov-16 08:22N 47°17' W 002°01'0 0.0
2017-Nov-16 07:58N 47°17' W 002°01'2 3.1
2017-Nov-16 07:29N 47°18' W 002°03'0 0.3
2017-Nov-16 06:52N 47°18' W 002°03'0 0.9
2017-Nov-16 06:30N 47°18' W 002°04'2 3.8
2017-Nov-16 05:58N 47°17' W 002°01'0 0.0
2017-Nov-15 18:29N 47°17' W 002°01'0 0.0
2017-Nov-15 17:53N 47°17' W 002°01'0 0.0
2017-Nov-15 17:30N 47°17' W 002°01'2 5.0
2017-Nov-15 17:00N 47°18' W 002°05'2 4.1
2017-Nov-15 16:25N 47°18' W 002°08'0 0.0
2017-Nov-15 15:59N 47°18' W 002°08'0 0.1
2017-Nov-15 15:19N 47°18' W 002°08'0 0.1
2017-Nov-15 14:58N 47°18' W 002°08'0 0.4
2017-Nov-15 14:30N 47°18' W 002°08'1 1.2
2017-Nov-15 14:00N 47°18' W 002°07'4 7.7
2017-Nov-15 13:30N 47°18' W 002°02'1 1.3
2017-Nov-15 12:59N 47°17' W 002°01'0 0.0
2017-Nov-15 12:23N 47°17' W 002°01'0 0.0
2017-Nov-15 11:56N 47°17' W 002°01'0 0.0
2017-Nov-15 11:26N 47°17' W 002°01'0 0.0
2017-Nov-15 10:55N 47°17' W 002°01'0 0.0
2017-Nov-15 10:28N 47°17' W 002°01'0 0.0
2017-Nov-15 09:59N 47°17' W 002°01'0 0.0
2017-Nov-15 09:28N 47°17' W 002°01'0 0.0
2017-Nov-15 08:59N 47°17' W 002°01'0 0.0
2017-Nov-15 08:26N 47°17' W 002°01'2 4.0
2017-Nov-15 07:59N 47°18' W 002°04'0 0.1
2017-Nov-15 07:28N 47°18' W 002°04'0 0.3
2017-Nov-15 06:59N 47°18' W 002°04'0 0.2
2017-Nov-15 06:28N 47°18' W 002°04'2 2.9
2017-Nov-15 05:50N 47°17' W 002°01'0 0.0
2017-Nov-14 18:06N 47°17' W 002°01'0 0.0
2017-Nov-14 17:07N 47°17' W 002°01'0 2.8
2017-Nov-14 17:00N 47°18' W 002°02'3 6.0
2017-Nov-14 16:30N 47°18' W 002°06'1 1.7
2017-Nov-14 16:00N 47°18' W 002°07'0 0.1
2017-Nov-14 15:29N 47°18' W 002°07'0 0.1
2017-Nov-14 14:56N 47°18' W 002°07'0 0.1
2017-Nov-14 14:28N 47°18' W 002°07'0 0.2
2017-Nov-14 14:00N 47°18' W 002°07'1 2.9
2017-Nov-14 13:30N 47°18' W 002°05'0 0.6
2017-Nov-14 13:00N 47°18' W 002°05'3 5.6
2017-Nov-14 12:30N 47°18' W 002°01'0 0.6
2017-Nov-14 11:55N 47°17' W 002°01'0 0.0
2017-Nov-14 11:22N 47°17' W 002°01'0 0.0
2017-Nov-14 10:52N 47°17' W 002°01'0 0.0
2017-Nov-14 10:28N 47°17' W 002°01'0 0.0
2017-Nov-14 09:58N 47°17' W 002°01'0 0.0
2017-Nov-14 09:28N 47°17' W 002°01'0 0.0
2017-Nov-14 08:55N 47°17' W 002°01'0 0.0
2017-Nov-14 08:25N 47°17' W 002°01'0 0.0
2017-Nov-14 07:55N 47°17' W 002°01'0 0.0
2017-Nov-14 07:25N 47°17' W 002°01'0 0.0
2017-Nov-14 06:55N 47°17' W 002°01'0 0.0
2017-Nov-14 06:16N 47°17' W 002°01'0 0.0
2017-Nov-14 05:58N 47°17' W 002°01'0 0.0
2017-Nov-14 05:25N 47°17' W 002°01'0 0.0
2017-Nov-14 04:58N 47°17' W 002°01'0 0.0
2017-Nov-14 04:28N 47°17' W 002°01'0 0.0
2017-Nov-14 03:58N 47°17' W 002°01'0 0.0
2017-Nov-14 03:25N 47°17' W 002°01'0 0.0
2017-Nov-14 02:52N 47°17' W 002°01'0 0.0
2017-Nov-14 02:19N 47°17' W 002°01'0 0.0
2017-Nov-14 01:58N 47°17' W 002°01'0 0.0
2017-Nov-14 01:28N 47°17' W 002°01'0 0.0
2017-Nov-14 00:55N 47°17' W 002°01'0 0.0
2017-Nov-14 00:22N 47°17' W 002°01'0 0.0
2017-Nov-13 23:58N 47°17' W 002°01'0 0.0
2017-Nov-13 23:25N 47°17' W 002°01'0 0.0
2017-Nov-13 22:58N 47°17' W 002°01'0 0.0
2017-Nov-13 22:28N 47°17' W 002°01'0 0.0
2017-Nov-13 21:58N 47°17' W 002°01'0 0.0
2017-Nov-13 01:45N 47°17' W 002°01'0 0.0
2017-Nov-13 01:24N 47°17' W 002°01'0 0.0
2017-Nov-12 17:24N 47°17' W 002°01'4 3.2
2017-Nov-12 16:14N 47°18' W 002°06'4 0.8
2017-Nov-12 11:44N 47°17' W 002°01'0 0.0
2017-Nov-12 07:05N 47°17' W 002°01'0 0.0
2017-Nov-12 06:56N 47°17' W 002°01'0 0.0
2017-Nov-12 00:02N 47°17' W 002°01'0 0.0
2017-Nov-11 18:59N 47°17' W 002°01'0 0.0
2017-Nov-11 11:50N 47°17' W 002°01'0 0.0
2017-Nov-11 11:14N 47°17' W 002°01'0 0.0
2017-Nov-11 10:47N 47°17' W 002°01'0 0.0
2017-Nov-11 10:29N 47°17' W 002°01'0 0.0
2017-Nov-11 09:50N 47°17' W 002°01'0 0.0
2017-Nov-11 09:29N 47°17' W 002°01'0 0.0
2017-Nov-11 08:38N 47°17' W 002°01'0 0.0
2017-Nov-11 08:11N 47°17' W 002°01'0 0.0
2017-Nov-11 07:02N 47°17' W 002°01'0 0.0
2017-Nov-11 06:59N 47°17' W 002°01'0 0.0
2017-Nov-11 04:32N 47°17' W 002°01'0 0.0
2017-Nov-11 01:23N 47°17' W 002°01'0 0.0
2017-Nov-11 00:59N 47°17' W 002°01'0 0.0
2017-Nov-11 00:26N 47°17' W 002°01'0 0.0
2017-Nov-10 23:59N 47°17' W 002°01'0 0.0
2017-Nov-10 23:23N 47°17' W 002°01'0 0.0
2017-Nov-10 22:53N 47°17' W 002°01'0 0.0
2017-Nov-10 22:26N 47°17' W 002°01'0 0.0
2017-Nov-10 21:47N 47°17' W 002°01'0 0.0
2017-Nov-10 21:05N 47°17' W 002°01'0 0.0
2017-Nov-10 20:59N 47°17' W 002°01'0 0.0
2017-Nov-10 20:29N 47°17' W 002°01'0 0.0
2017-Nov-10 19:59N 47°17' W 002°01'0 0.0
2017-Nov-10 19:29N 47°17' W 002°01'0 0.0
2017-Nov-10 18:35N 47°17' W 002°01'0 0.0
2017-Nov-10 17:38N 47°17' W 002°01'0 0.0
2017-Nov-10 17:26N 47°17' W 002°01'0 0.0
2017-Nov-10 16:47N 47°17' W 002°01'0 0.0
2017-Nov-10 16:29N 47°17' W 002°01'0 0.1
2017-Nov-10 16:00N 47°17' W 002°01'4 8.3
2017-Nov-10 15:30N 47°17' W 001°55'4 6.9
2017-Nov-10 14:56N 47°14' W 001°51'0 0.5
2017-Nov-10 14:20N 47°15' W 001°51'0 0.2
2017-Nov-10 13:18N 47°15' W 001°51'0 0.3
2017-Nov-10 13:00N 47°15' W 001°51'0 0.1
2017-Nov-10 11:10N 47°14' W 001°51'0 0.7
2017-Nov-10 10:50N 47°15' W 001°51'1 1.7
2017-Nov-10 10:30N 47°14' W 001°50'0 0.1
2017-Nov-10 09:59N 47°14' W 001°50'0 0.2
2017-Nov-10 09:29N 47°14' W 001°50'0 0.0
2017-Nov-10 08:58N 47°14' W 001°50'0 0.1
2017-Nov-10 08:30N 47°14' W 001°50'3 5.1
2017-Nov-10 08:00N 47°13' W 001°47'1 0.3
2017-Nov-10 04:00N 47°12' W 001°46'4 0.3
2017-Nov-09 11:03N 47°15' W 001°51'0 2.7
2017-Nov-09 11:00N 47°15' W 001°51'0 0.1
2017-Nov-09 10:27N 47°15' W 001°51'0 0.1
2017-Nov-09 09:46N 47°15' W 001°51'0 0.8
2017-Nov-09 09:29N 47°15' W 001°51'0 0.1
2017-Nov-09 09:00N 47°15' W 001°51'0 0.1
2017-Nov-09 08:25N 47°15' W 001°51'0 0.3
2017-Nov-09 08:01N 47°15' W 001°51'0 0.1
2017-Nov-09 07:31N 47°15' W 001°51'0 0.0
2017-Nov-09 06:59N 47°15' W 001°51'3 5.5
2017-Nov-09 06:30N 47°13' W 001°48'2 2.6
2017-Nov-09 05:51N 47°12' W 001°46'0 0.0
2017-Nov-09 05:27N 47°12' W 001°46'0 0.0
2017-Nov-09 04:12N 47°12' W 001°46'0 0.0
2017-Nov-09 03:00N 47°12' W 001°46'0 0.0
2017-Nov-09 01:39N 47°12' W 001°46'0 0.0
2017-Nov-08 23:21N 47°12' W 001°46'  
Track history (hours):
 
Tides and Currents Weather Stations Pressure Air Temp Water Temp Dewpoint Dewpoint Depression Visibility Wind Speed Wind Dir Waves Ship Positions

Milouin

Last reported at 2017-Nov-18 23:16 UTC. Time now 2017-Nov-18 23:48 UTC.
Position N 47°17' W 002°01'.

Length 36 m; draft 2.5 m.

Type: Ship. MMSI: 227003190.

Date/timePositionNaut miles runAvg speedWind from/ knotsBaromVisibWave heightAir tempDewpointWater temp
2017-Nov-18 23:16N 47°17' W 002°01'0 0.0
2017-Nov-18 17:16N 47°17' W 002°01'2 5.8
2017-Nov-18 17:01N 47°18' W 002°03'0 0.3
2017-Nov-18 16:27N 47°18' W 002°03'0 0.1
2017-Nov-18 16:00N 47°18' W 002°04'0 0.3
2017-Nov-18 15:30N 47°18' W 002°03'1 2.8
2017-Nov-18 15:00N 47°18' W 002°01'0 0.6
2017-Nov-18 14:23N 47°17' W 002°01'0 0.0
2017-Nov-18 13:59N 47°17' W 002°01'0 0.0
2017-Nov-18 13:29N 47°17' W 002°01'0 0.0
2017-Nov-18 12:59N 47°17' W 002°01'0 0.0
2017-Nov-18 12:29N 47°17' W 002°01'0 0.0
2017-Nov-18 11:56N 47°17' W 002°01'0 0.0
2017-Nov-18 11:29N 47°17' W 002°01'0 0.0
2017-Nov-18 10:56N 47°17' W 002°01'0 0.0
2017-Nov-18 10:30N 47°17' W 002°01'3 6.7
2017-Nov-18 10:00N 47°17' W 001°56'1 2.0
2017-Nov-18 09:28N 47°17' W 001°55'0 0.0
2017-Nov-18 08:58N 47°17' W 001°55'0 0.1
2017-Nov-18 08:30N 47°17' W 001°55'2 4.3
2017-Nov-18 08:00N 47°17' W 001°58'2 4.0
2017-Nov-18 07:30N 47°17' W 002°01'0 0.5
2017-Nov-18 06:56N 47°17' W 002°01'0 0.0
2017-Nov-18 06:29N 47°17' W 002°01'0 0.0
2017-Nov-18 05:59N 47°17' W 002°01'0 0.0
2017-Nov-18 05:29N 47°17' W 002°01'0 0.0
2017-Nov-18 04:59N 47°17' W 002°01'0 0.0
2017-Nov-18 04:29N 47°17' W 002°01'0 0.0
2017-Nov-18 03:59N 47°17' W 002°01'0 0.0
2017-Nov-18 03:29N 47°17' W 002°01'0 0.0
2017-Nov-18 02:50N 47°17' W 002°01'0 0.0
2017-Nov-18 02:29N 47°17' W 002°01'0 0.0
2017-Nov-18 01:50N 47°17' W 002°01'0 0.0
2017-Nov-18 01:17N 47°17' W 002°01'0 0.0
2017-Nov-18 00:44N 47°17' W 002°01'0 0.0
2017-Nov-18 00:29N 47°17' W 002°01'0 0.0
2017-Nov-17 23:56N 47°17' W 002°01'0 0.0
2017-Nov-17 23:26N 47°17' W 002°01'0 0.0
2017-Nov-17 22:50N 47°17' W 002°01'0 0.0
2017-Nov-17 21:53N 47°17' W 002°01'0 0.0
2017-Nov-17 21:29N 47°17' W 002°01'0 0.0
2017-Nov-17 20:53N 47°17' W 002°01'0 0.0
2017-Nov-17 20:26N 47°17' W 002°01'0 0.0
2017-Nov-17 19:56N 47°17' W 002°01'0 0.0
2017-Nov-17 19:29N 47°17' W 002°01'0 0.0
2017-Nov-17 18:59N 47°17' W 002°01'0 0.0
2017-Nov-17 18:11N 47°17' W 002°01'0 0.0
2017-Nov-17 17:59N 47°17' W 002°01'0 0.0
2017-Nov-17 17:29N 47°17' W 002°01'1 2.8
2017-Nov-17 17:00N 47°18' W 002°03'0 0.6
2017-Nov-17 16:28N 47°18' W 002°03'0 0.2
2017-Nov-17 16:01N 47°18' W 002°03'0 0.4
2017-Nov-17 15:30N 47°18' W 002°04'0 0.3
2017-Nov-17 14:59N 47°18' W 002°04'2 3.8
2017-Nov-17 14:30N 47°18' W 002°01'0 0.4
2017-Nov-17 13:59N 47°17' W 002°01'0 0.0
2017-Nov-17 13:29N 47°17' W 002°01'0 0.0
2017-Nov-17 12:56N 47°17' W 002°01'0 0.0
2017-Nov-17 12:23N 47°17' W 002°01'0 0.0
2017-Nov-17 11:56N 47°17' W 002°01'0 0.0
2017-Nov-17 11:29N 47°17' W 002°01'0 0.0
2017-Nov-17 10:35N 47°17' W 002°01'0 0.0
2017-Nov-17 10:11N 47°17' W 002°01'0 0.0
2017-Nov-17 09:50N 47°17' W 002°01'0 1.5
2017-Nov-17 09:30N 47°17' W 002°00'0 0.8
2017-Nov-17 09:00N 47°17' W 001°60'1 0.9
2017-Nov-17 08:26N 47°18' W 002°01'1 1.4
2017-Nov-17 07:59N 47°18' W 002°02'0 0.3
2017-Nov-17 06:20N 47°17' W 002°01'0 0.0
2017-Nov-16 16:57N 47°17' W 002°01'3 6.2
2017-Nov-16 16:30N 47°18' W 002°05'0 0.8
2017-Nov-16 16:00N 47°18' W 002°06'0 0.1
2017-Nov-16 15:29N 47°18' W 002°06'0 0.0
2017-Nov-16 15:00N 47°18' W 002°06'0 0.3
2017-Nov-16 14:30N 47°18' W 002°06'2 4.8
2017-Nov-16 14:00N 47°18' W 002°02'1 1.6
2017-Nov-16 13:25N 47°17' W 002°01'0 0.0
2017-Nov-16 12:55N 47°17' W 002°01'0 0.0
2017-Nov-16 12:25N 47°17' W 002°01'0 0.0
2017-Nov-16 11:55N 47°17' W 002°01'0 0.0
2017-Nov-16 11:28N 47°17' W 002°01'0 0.0
2017-Nov-16 10:55N 47°17' W 002°01'0 0.0
2017-Nov-16 10:19N 47°17' W 002°01'0 0.0
2017-Nov-16 09:58N 47°17' W 002°01'0 0.0
2017-Nov-16 09:25N 47°17' W 002°01'0 0.0
2017-Nov-16 08:43N 47°17' W 002°01'0 0.0
2017-Nov-16 08:22N 47°17' W 002°01'0 0.0
2017-Nov-16 07:58N 47°17' W 002°01'2 3.1
2017-Nov-16 07:29N 47°18' W 002°03'0 0.3
2017-Nov-16 06:52N 47°18' W 002°03'0 0.9
2017-Nov-16 06:30N 47°18' W 002°04'2 3.8
2017-Nov-16 05:58N 47°17' W 002°01'0 0.0
2017-Nov-15 18:29N 47°17' W 002°01'0 0.0
2017-Nov-15 17:53N 47°17' W 002°01'0 0.0
2017-Nov-15 17:30N 47°17' W 002°01'2 5.0
2017-Nov-15 17:00N 47°18' W 002°05'2 4.1
2017-Nov-15 16:25N 47°18' W 002°08'0 0.0
2017-Nov-15 15:59N 47°18' W 002°08'0 0.1
2017-Nov-15 15:19N 47°18' W 002°08'0 0.1
2017-Nov-15 14:58N 47°18' W 002°08'0 0.4
2017-Nov-15 14:30N 47°18' W 002°08'1 1.2
2017-Nov-15 14:00N 47°18' W 002°07'4 7.7
2017-Nov-15 13:30N 47°18' W 002°02'1 1.3
2017-Nov-15 12:59N 47°17' W 002°01'0 0.0
2017-Nov-15 12:23N 47°17' W 002°01'0 0.0
2017-Nov-15 11:56N 47°17' W 002°01'0 0.0
2017-Nov-15 11:26N 47°17' W 002°01'0 0.0
2017-Nov-15 10:55N 47°17' W 002°01'0 0.0
2017-Nov-15 10:28N 47°17' W 002°01'0 0.0
2017-Nov-15 09:59N 47°17' W 002°01'0 0.0
2017-Nov-15 09:28N 47°17' W 002°01'0 0.0
2017-Nov-15 08:59N 47°17' W 002°01'0 0.0
2017-Nov-15 08:26N 47°17' W 002°01'2 4.0
2017-Nov-15 07:59N 47°18' W 002°04'0 0.1
2017-Nov-15 07:28N 47°18' W 002°04'0 0.3
2017-Nov-15 06:59N 47°18' W 002°04'0 0.2
2017-Nov-15 06:28N 47°18' W 002°04'2 2.9
2017-Nov-15 05:50N 47°17' W 002°01'0 0.0
2017-Nov-14 18:06N 47°17' W 002°01'0 0.0
2017-Nov-14 17:07N 47°17' W 002°01'0 2.8
2017-Nov-14 17:00N 47°18' W 002°02'3 6.0
2017-Nov-14 16:30N 47°18' W 002°06'1 1.7
2017-Nov-14 16:00N 47°18' W 002°07'0 0.1
2017-Nov-14 15:29N 47°18' W 002°07'0 0.1
2017-Nov-14 14:56N 47°18' W 002°07'0 0.1
2017-Nov-14 14:28N 47°18' W 002°07'0 0.2
2017-Nov-14 14:00N 47°18' W 002°07'1 2.9
2017-Nov-14 13:30N 47°18' W 002°05'0 0.6
2017-Nov-14 13:00N 47°18' W 002°05'3 5.6
2017-Nov-14 12:30N 47°18' W 002°01'0 0.6
2017-Nov-14 11:55N 47°17' W 002°01'0 0.0
2017-Nov-14 11:22N 47°17' W 002°01'0 0.0
2017-Nov-14 10:52N 47°17' W 002°01'0 0.0
2017-Nov-14 10:28N 47°17' W 002°01'0 0.0
2017-Nov-14 09:58N 47°17' W 002°01'0 0.0
2017-Nov-14 09:28N 47°17' W 002°01'0 0.0
2017-Nov-14 08:55N 47°17' W 002°01'0 0.0
2017-Nov-14 08:25N 47°17' W 002°01'0 0.0
2017-Nov-14 07:55N 47°17' W 002°01'0 0.0
2017-Nov-14 07:25N 47°17' W 002°01'0 0.0
2017-Nov-14 06:55N 47°17' W 002°01'0 0.0
2017-Nov-14 06:16N 47°17' W 002°01'0 0.0
2017-Nov-14 05:58N 47°17' W 002°01'0 0.0
2017-Nov-14 05:25N 47°17' W 002°01'0 0.0
2017-Nov-14 04:58N 47°17' W 002°01'0 0.0
2017-Nov-14 04:28N 47°17' W 002°01'0 0.0
2017-Nov-14 03:58N 47°17' W 002°01'0 0.0
2017-Nov-14 03:25N 47°17' W 002°01'0 0.0
2017-Nov-14 02:52N 47°17' W 002°01'0 0.0
2017-Nov-14 02:19N 47°17' W 002°01'0 0.0
2017-Nov-14 01:58N 47°17' W 002°01'0 0.0
2017-Nov-14 01:28N 47°17' W 002°01'0 0.0
2017-Nov-14 00:55N 47°17' W 002°01'0 0.0
2017-Nov-14 00:22N 47°17' W 002°01'0 0.0
2017-Nov-13 23:58N 47°17' W 002°01'0 0.0
2017-Nov-13 23:25N 47°17' W 002°01'0 0.0
2017-Nov-13 22:58N 47°17' W 002°01'0 0.0
2017-Nov-13 22:28N 47°17' W 002°01'0 0.0
2017-Nov-13 21:58N 47°17' W 002°01'0 0.0
2017-Nov-13 01:45N 47°17' W 002°01'0 0.0
2017-Nov-13 01:24N 47°17' W 002°01'0 0.0
2017-Nov-12 17:24N 47°17' W 002°01'4 3.2
2017-Nov-12 16:14N 47°18' W 002°06'4 0.8
2017-Nov-12 11:44N 47°17' W 002°01'0 0.0
2017-Nov-12 07:05N 47°17' W 002°01'0 0.0
2017-Nov-12 06:56N 47°17' W 002°01'0 0.0
2017-Nov-12 00:02N 47°17' W 002°01'0 0.0
2017-Nov-11 18:59N 47°17' W 002°01'0 0.0
2017-Nov-11 11:50N 47°17' W 002°01'0 0.0
2017-Nov-11 11:14N 47°17' W 002°01'0 0.0
2017-Nov-11 10:47N 47°17' W 002°01'0 0.0
2017-Nov-11 10:29N 47°17' W 002°01'0 0.0
2017-Nov-11 09:50N 47°17' W 002°01'0 0.0
2017-Nov-11 09:29N 47°17' W 002°01'0 0.0
2017-Nov-11 08:38N 47°17' W 002°01'0 0.0
2017-Nov-11 08:11N 47°17' W 002°01'0 0.0
2017-Nov-11 07:02N 47°17' W 002°01'0 0.0
2017-Nov-11 06:59N 47°17' W 002°01'0 0.0
2017-Nov-11 04:32N 47°17' W 002°01'0 0.0
2017-Nov-11 01:23N 47°17' W 002°01'0 0.0
2017-Nov-11 00:59N 47°17' W 002°01'0 0.0
2017-Nov-11 00:26N 47°17' W 002°01'0 0.0
2017-Nov-10 23:59N 47°17' W 002°01'0 0.0
2017-Nov-10 23:23N 47°17' W 002°01'0 0.0
2017-Nov-10 22:53N 47°17' W 002°01'0 0.0
2017-Nov-10 22:26N 47°17' W 002°01'0 0.0
2017-Nov-10 21:47N 47°17' W 002°01'0 0.0
2017-Nov-10 21:05N 47°17' W 002°01'0 0.0
2017-Nov-10 20:59N 47°17' W 002°01'0 0.0
2017-Nov-10 20:29N 47°17' W 002°01'0 0.0
2017-Nov-10 19:59N 47°17' W 002°01'0 0.0
2017-Nov-10 19:29N 47°17' W 002°01'0 0.0
2017-Nov-10 18:35N 47°17' W 002°01'0 0.0
2017-Nov-10 17:38N 47°17' W 002°01'0 0.0
2017-Nov-10 17:26N 47°17' W 002°01'0 0.0
2017-Nov-10 16:47N 47°17' W 002°01'0 0.0
2017-Nov-10 16:29N 47°17' W 002°01'0 0.1
2017-Nov-10 16:00N 47°17' W 002°01'4 8.3
2017-Nov-10 15:30N 47°17' W 001°55'4 6.9
2017-Nov-10 14:56N 47°14' W 001°51'0 0.5
2017-Nov-10 14:20N 47°15' W 001°51'0 0.2
2017-Nov-10 13:18N 47°15' W 001°51'0 0.3
2017-Nov-10 13:00N 47°15' W 001°51'0 0.1
2017-Nov-10 11:10N 47°14' W 001°51'0 0.7
2017-Nov-10 10:50N 47°15' W 001°51'1 1.7
2017-Nov-10 10:30N 47°14' W 001°50'0 0.1
2017-Nov-10 09:59N 47°14' W 001°50'0 0.2
2017-Nov-10 09:29N 47°14' W 001°50'0 0.0
2017-Nov-10 08:58N 47°14' W 001°50'0 0.1
2017-Nov-10 08:30N 47°14' W 001°50'3 5.1
2017-Nov-10 08:00N 47°13' W 001°47'1 0.3
2017-Nov-10 04:00N 47°12' W 001°46'4 0.3
2017-Nov-09 11:03N 47°15' W 001°51'0 2.7
2017-Nov-09 11:00N 47°15' W 001°51'0 0.1
2017-Nov-09 10:27N 47°15' W 001°51'0 0.1
2017-Nov-09 09:46N 47°15' W 001°51'0 0.8
2017-Nov-09 09:29N 47°15' W 001°51'0 0.1
2017-Nov-09 09:00N 47°15' W 001°51'0 0.1
2017-Nov-09 08:25N 47°15' W 001°51'0 0.3
2017-Nov-09 08:01N 47°15' W 001°51'0 0.1
2017-Nov-09 07:31N 47°15' W 001°51'0 0.0
2017-Nov-09 06:59N 47°15' W 001°51'3 5.5
2017-Nov-09 06:30N 47°13' W 001°48'2 2.6
2017-Nov-09 05:51N 47°12' W 001°46'0 0.0
2017-Nov-09 05:27N 47°12' W 001°46'0 0.0
2017-Nov-09 04:12N 47°12' W 001°46'0 0.0
2017-Nov-09 03:00N 47°12' W 001°46'0 0.0
2017-Nov-09 01:39N 47°12' W 001°46'0 0.0
2017-Nov-08 23:21N 47°12' W 001°46'  

Dump ship's entire track history